X  Lukk Metar værinformasjon om luftfart        LGTS Thessaloniki Macedonia International
Temperatur
55°F Temperatur
54°F Duggpunkt
94% Luftfuktighet



Vind
2 MPT
4 KM/T
1 M/S
2 KNP



-1°
VRB
Nåværende forhold

Mostly Clear For det meste klart
Trykk 1018 (hPa) - 30.06 (inHg)
Sikt 6 (mil) - 10 (km)
Flyplass
Flyplass-kode LGTS

Plassering: Thessaloniki Macedonia International
Avstand: 85 (mi)

Metar:
METAR LGTS 250450Z VRB02KT 9999 FEW025 13/12 Q1018 NOSIG

Tid: 25-02-2024 06:50 EET